Terminal Aerodrome Forecast
Issued by NWS

Home | Current Version | Previous Version | Text Only | Print | Product List | Glossary On
Versions: 1 2 3 4 5 6 7 8 9 10 11 12 13 14 15 16 17 18 19 20 21 22 23 24 25
000
FTAK31 PAJN 310644 AAA
TAFASI
TAF AMD
PASI 310644Z 3107/0106 34004KT 6SM -RA BR BKN040 OVC060
      TEMPO 3107/3111 VRB04KT 4SM RA BR BKN030 OVC040
     FM311500 VRB03KT 6SM -SHRA BR SCT015 OVC025
     FM312000 24006KT P6SM -SHRA BKN025 OVC050
     FM010200 25005KT P6SM VCSH BKN035 OVC060=

USA.gov is the U.S. government's official web portal to all federal, state and local government web resources and services.